Latest Coastal Weather Observations for Swan Island

IDT60701

Issued at 6:42 am EST Saturday 22 July 2017 (issued every 10 minutes, with the page automatically refreshed every 10 minutes)

About coastal observations | Map of coastal stations | Coastal observations for TAS | Marine services | Other Formats
Station Details ID: 092123 Name: SWAN ISLAND Lat: -40.73 Lon: 148.12 Height: 15.0 m
Data from the previous 72 hours. | See also: Recent months at Swan Island
Date/Time
EST
Temp
°C
Wind Pressure Rain since
9am
mm
Weather Cloud Vis
km
Sea
Height
m
Swell
Dir  Spd
kts
Gust
kts
hPa Trend Height
m
Period
s
Dir
22/06:30am 11.3 WNW 15 20 1016.8 - 0.0 - - - - - - -
22/06:00am 11.2 WNW 15 20 1016.8 - 0.0 - - - - - - -
22/05:30am 11.1 WNW 14 19 1016.7 - 0.0 - - - - - - -
22/05:00am 11.1 WNW 15 19 1016.8 - 0.0 - - - - - - -
22/04:30am 11.2 NW 16 22 1017.2 - 0.0 - - - - - - -
22/04:00am 11.2 NW 13 18 1017.6 - 0.0 - - - - - - -
22/03:30am 11.1 WNW 15 20 1017.9 - 0.0 - - - - - - -
22/03:00am 11.0 WNW 15 19 1018.3 - 0.0 - - - - - - -
22/02:30am 11.0 WNW 15 19 1018.8 - 0.0 - - - - - - -
22/02:00am 11.0 WNW 16 21 1018.8 - 0.0 - - - - - - -
22/01:30am 10.7 WNW 14 19 1019.0 - 0.0 - - - - - - -
22/01:00am 11.1 WNW 13 17 1019.4 - 0.0 - - - - - - -
22/12:30am 11.2 NW 13 17 1019.8 - 0.0 - - - - - - -
22/12:00am 10.9 NW 13 17 1020.2 - 0.0 - - - - - - -
 
Date/Time
EST
Temp
°C
Wind Pressure Rain since
9am
mm
Weather Cloud Vis
km
Sea
Height
m
Swell
Dir  Spd
kts
Gust
kts
hPa Trend Height
m
Period
s
Dir
21/11:30pm 10.9 WNW 12 17 1020.5 - 0.0 - - - - - - -
21/11:00pm 11.1 NW 11 16 1020.6 - 0.0 - - - - - - -
21/10:30pm 11.1 NW 11 15 1020.6 - 0.0 - - - - - - -
21/10:00pm 10.7 WNW 10 13 1020.8 - 0.0 - - - - - - -
21/09:30pm 10.4 WNW 8 11 1020.9 - 0.0 - - - - - - -
21/09:00pm 10.4 WNW 7 9 1020.9 - 0.0 - - - - - - -
21/08:30pm 9.9 WNW 5 8 1020.9 - 0.0 - - - - - - -
21/08:00pm 9.8 WNW 5 8 1020.9 - 0.0 - - - - - - -
21/07:30pm 10.0 WNW 6 7 1021.1 - 0.0 - - - - - - -
21/07:00pm 10.0 W 7 10 1021.3 - 0.0 - - - - - - -
21/06:30pm 10.0 W 8 11 1021.3 - 0.0 - - - - - - -
21/06:00pm 10.0 W 9 14 1021.4 - 0.0 - - - - - - -
21/05:30pm 10.1 W 10 13 1021.2 - 0.0 - - - - - - -
21/05:00pm 10.0 W 9 13 1021.0 - 0.0 - - - - - - -
21/04:30pm 10.5 W 9 12 1020.9 - 0.0 - - - - - - -
21/04:00pm 11.0 W 10 13 1020.8 - 0.0 - - - - - - -
21/03:30pm 11.6 W 9 13 1020.9 - 0.0 - - - - - - -
21/03:00pm 12.0 W 8 13 1021.0 - 0.0 - - - - - - -
21/02:30pm 12.3 W 9 13 1021.1 - 0.0 - - - - - - -
21/02:00pm 13.1 WNW 6 8 1021.2 - 0.0 - - - - - - -
21/01:30pm 12.2 W 8 10 1021.4 - 0.0 - - - - - - -
21/01:00pm 12.1 W 8 11 1021.6 - 0.0 - - - - - - -
21/12:30pm 12.1 W 8 11 1021.9 - 0.0 - - - - - - -
21/12:00pm 12.3 W 8 10 1022.3 - 0.0 - - - - - - -
21/11:30am 11.9 W 7 9 1022.8 - 0.0 - - - - - - -
21/11:00am 11.8 SW 5 7 1023.0 - 0.0 - - - - - - -
21/10:30am 11.2 SW 5 7 1023.2 - 0.0 - - - - - - -
21/10:00am 10.3 SW 5 7 1023.0 - 0.0 - - - - - - -
21/09:30am 10.4 WSW 5 7 1022.8 - 0.0 - - - - - - -
21/09:00am 9.2 SW 4 5 1022.6 - 0.0 - - - - - - -
21/08:30am 8.2 SW 5 6 1022.1 - 0.0 - - - - - - -
21/08:00am 6.8 SW 5 7 1022.0 - 0.0 - - - - - - -
21/07:30am 6.0 WSW 6 7 1021.7 - 0.0 - - - - - - -
21/07:00am 6.5 SW 6 7 1021.6 - 0.0 - - - - - - -
21/06:30am 6.4 WSW 5 7 1021.5 - 0.0 - - - - - - -
21/06:00am 6.2 WSW 5 6 1021.2 - 0.0 - - - - - - -
21/05:30am 6.5 WSW 5 7 1020.9 - 0.0 - - - - - - -
21/05:00am 7.8 SSW 6 9 1020.8 - 0.0 - - - - - - -
21/04:30am 7.9 SSW 6 9 1020.7 - 0.0 - - - - - - -
21/04:00am 7.1 SW 5 8 1020.5 - 0.0 - - - - - - -
21/03:30am 7.3 SW 6 8 1020.5 - 0.0 - - - - - - -
21/03:00am 7.3 SW 6 9 1020.5 - 0.0 - - - - - - -
21/02:30am 8.0 SW 6 11 1020.4 - 0.0 - - - - - - -
21/02:00am 7.8 SW 7 9 1020.5 - 0.0 - - - - - - -
21/01:30am 7.0 WSW 7 11 1020.4 - 0.0 - - - - - - -
21/01:00am 7.6 SW 6 8 1020.2 - 0.0 - - - - - - -
21/12:30am 7.1 SW 6 9 1020.2 - 0.0 - - - - - - -
21/12:00am 7.3 SW 7 10 1020.1 - 0.0 - - - - - - -
 
Date/Time
EST
Temp
°C
Wind Pressure Rain since
9am
mm
Weather Cloud Vis
km
Sea
Height
m
Swell
Dir  Spd
kts
Gust
kts
hPa Trend Height
m
Period
s
Dir
20/11:30pm 7.6 SW 6 8 1019.9 - 0.0 - - - - - - -
20/11:00pm 7.7 SW 5 7 1019.7 - 0.0 - - - - - - -
20/10:30pm 7.8 SW 6 8 1019.6 - 0.0 - - - - - - -
20/10:00pm 7.9 SW 7 10 1019.3 - 0.0 - - - - - - -
20/09:30pm 8.4 SW 6 8 1018.9 - 0.0 - - - - - - -
20/09:00pm 8.1 SW 5 8 1018.8 - 0.0 - - - - - - -
20/08:30pm 8.3 SSW 6 10 1018.2 - 0.0 - - - - - - -
20/08:00pm 8.4 SW 6 9 1018.0 - 0.0 - - - - - - -
20/07:30pm 8.7 SSW 7 12 1017.5 - 0.0 - - - - - - -
20/07:00pm 8.7 SSW 8 12 1017.0 - 0.0 - - - - - - -
20/06:30pm 8.7 S 9 15 1016.4 - 0.0 - - - - - - -
20/06:00pm 8.7 SSW 6 9 1015.8 - 0.0 - - - - - - -
20/05:30pm 8.9 S 9 15 1015.5 - 0.0 - - - - - - -
20/05:00pm 9.4 S 13 19 1014.9 - 0.0 - - - - - - -
20/04:30pm 9.6 S 12 17 1014.5 - 0.0 - - - - - - -
20/04:00pm 10.5 S 12 18 1013.7 - 0.0 - - - - - - -
20/03:30pm 10.9 S 9 17 1013.0 - 0.0 - - - - - - -
20/03:00pm 11.3 S 5 9 1012.2 - 0.0 - - - - - - -
20/02:30pm 11.2 SSW 5 7 1011.6 - 0.0 - - - - - - -
20/02:00pm 11.0 WSW 7 11 1011.0 - 0.0 - - - - - - -
20/01:30pm 11.1 W 9 13 1010.6 - 0.0 - - - - - - -
20/01:00pm 11.0 WSW 6 9 1010.4 - 0.0 - - - - - - -
20/12:30pm 10.7 WSW 8 13 1010.1 - 0.0 - - - - - - -
20/12:00pm 10.4 W 8 12 1009.9 - 0.0 - - - - - - -
20/11:30am 9.6 WSW 9 13 1010.0 - 0.0 - - - - - - -
20/11:00am 9.4 WSW 8 13 1009.8 - 0.0 - - - - - - -
20/10:30am 8.5 WSW 9 13 1009.7 - 0.0 - - - - - - -
20/10:00am 7.7 WSW 10 16 1009.3 - 0.0 - - - - - - -
20/09:30am 6.6 WSW 11 16 1009.0 - 0.0 - - - - - - -
20/09:00am 6.7 WSW 9 15 1008.8 - 0.0 - - - - - - -
20/08:30am 6.3 WSW 10 17 1008.5 - 0.0 - - - - - - -
20/08:00am 6.1 WSW 8 13 1007.9 - 0.0 - - - - - - -
20/07:30am 6.2 WSW 10 16 1007.3 - 0.0 - - - - - - -
20/07:00am 6.2 WSW 9 16 1007.0 - 0.0 - - - - - - -
20/06:30am 6.4 WSW 11 17 1006.4 - 0.0 - - - - - - -
20/06:00am 6.7 WSW 13 20 1006.4 - 0.0 - - - - - - -
20/05:30am 6.6 WSW 12 21 1005.9 - 0.0 - - - - - - -
20/05:00am 6.8 WSW 14 22 1005.7 - 0.0 - - - - - - -
20/04:30am 6.6 WSW 14 22 1005.7 - 0.0 - - - - - - -
20/04:00am 7.2 WSW 14 21 1005.5 - 0.0 - - - - - - -
20/03:30am 7.6 WSW 15 22 1005.5 - 0.0 - - - - - - -
20/03:00am 7.7 WSW 15 24 1005.7 - 0.0 - - - - - - -
20/02:30am 8.0 WSW 17 24 1005.2 - 0.0 - - - - - - -
20/02:00am 8.2 WSW 14 23 1005.4 - 0.0 - - - - - - -
20/01:30am 8.9 WSW 18 26 1005.1 - 0.0 - - - - - - -
20/01:00am 9.6 W 20 31 1005.2 - 0.0 - - - - - - -
20/12:58am 9.6 W 19 31 1005.1 - 0.0 - - - - - - -
20/12:30am 9.8 W 21 27 1005.4 - 0.0 - - - - - - -
20/12:19am 9.9 W 20 31 1005.5 - 0.0 - - - - - - -
20/12:00am 9.8 W 24 31 1005.7 - 0.0 - - - - - - -
 
Date/Time
EST
Temp
°C
Wind Pressure Rain since
9am
mm
Weather Cloud Vis
km
Sea
Height
m
Swell
Dir  Spd
kts
Gust
kts
hPa Trend Height
m
Period
s
Dir
19/11:36pm 10.0 W 21 32 1006.3 - 0.0 - - - - - - -
19/11:30pm 9.9 W 20 29 1006.4 - 0.0 - - - - - - -
19/11:00pm 10.0 W 23 35 1007.0 - 0.0 - - - - - - -
19/10:30pm 9.8 W 20 31 1007.4 - 0.0 - - - - - - -
19/10:16pm 9.7 W 20 32 1007.3 - 0.0 - - - - - - -
19/10:00pm 9.8 W 21 30 1007.6 - 0.0 - - - - - - -
19/09:30pm 9.3 W 13 20 1008.2 - 0.0 - - - - - - -
19/09:00pm 8.4 WSW 9 15 1008.6 - 0.0 - - - - - - -
19/08:30pm 8.8 WSW 12 19 1009.0 - 0.0 - - - - - - -
19/08:00pm 8.7 WSW 6 9 1008.7 - 0.0 - - - - - - -
19/07:30pm 9.5 W 3 5 1008.4 - 0.0 - - - - - - -
19/07:00pm 9.0 SW 3 5 1008.1 - 0.0 - - - - - - -
19/06:30pm 10.2 CALM 0 3 1008.0 - 0.0 - - - - - - -
19/06:00pm 10.4 E 5 7 1008.2 - 0.0 - - - - - - -
19/05:30pm 10.5 E 5 6 1007.9 - 0.0 - - - - - - -
19/05:00pm 11.0 ESE 7 8 1007.5 - 0.0 - - - - - - -
19/04:30pm 11.8 ESE 3 6 1007.3 - 0.0 - - - - - - -
19/04:00pm 13.0 SSW 3 5 1007.0 - 0.0 - - - - - - -
19/03:30pm 13.1 SSE 3 6 1006.9 - 0.0 - - - - - - -
19/03:00pm 13.4 SW 5 9 1006.7 - 0.0 - - - - - - -
19/02:30pm 12.6 WSW 5 8 1006.4 - 0.0 - - - - - - -
19/02:00pm 12.6 W 9 13 1006.1 - 0.0 - - - - - - -
19/01:30pm 13.0 W 10 13 1006.0 - 0.0 - - - - - - -
19/01:00pm 12.4 W 8 10 1005.8 - 0.0 - - - - - - -
19/12:30pm 12.3 WSW 5 8 1005.9 - 0.0 - - - - - - -
19/12:00pm 13.6 WSW 5 11 1005.9 - 0.0 - - - - - - -
19/11:30am 12.7 S 7 12 1006.0 - 0.0 - - - - - - -
19/11:00am 12.5 SSW 6 9 1005.7 - 0.0 - - - - - - -
19/10:30am 12.3 SSW 7 11 1005.5 - 0.0 - - - - - - -
19/10:00am 11.4 SSW 6 12 1005.3 - 0.0 - - - - - - -
19/09:30am 10.6 WSW 3 5 1004.8 - 0.0 - - - - - - -
19/09:00am 9.3 SW 4 6 1004.3 - 7.0 - - - - - - -
19/08:30am 9.1 WSW 6 8 1003.9 - 7.0 - - - - - - -
19/08:00am 8.2 SW 5 7 1003.7 - 7.0 - - - - - - -
19/07:30am 7.7 SW 6 7 1003.3 - 7.0 - - - - - - -
19/07:00am 7.4 SW 5 7 1003.0 - 7.0 - - - - - - -

Other Formats:

Comma delimited format used in spreadsheet applications
http://www.bom.gov.au/fwo/IDT60701/IDT60701.95985.axf

JavaScript Object Notation format (JSON) in row-major order
http://www.bom.gov.au/fwo/IDT60701/IDT60701.95985.json